sensor_id;sensor_type;location;lat;lon;timestamp;P1;durP1;ratioP1;P2;durP2;ratioP2
809;SDS011;387;48.772;9.186;2023-06-22T00:02:08;15.60;;;8.47;;
809;SDS011;387;48.772;9.186;2023-06-22T00:04:33;11.73;;;8.10;;
809;SDS011;387;48.772;9.186;2023-06-22T00:06:59;12.80;;;8.80;;
809;SDS011;387;48.772;9.186;2023-06-22T00:09:24;14.47;;;9.23;;
809;SDS011;387;48.772;9.186;2023-06-22T00:11:50;11.40;;;8.23;;
809;SDS011;387;48.772;9.186;2023-06-22T00:14:15;14.90;;;9.50;;
809;SDS011;387;48.772;9.186;2023-06-22T00:16:41;14.03;;;8.60;;
809;SDS011;387;48.772;9.186;2023-06-22T00:19:07;13.27;;;8.77;;
809;SDS011;387;48.772;9.186;2023-06-22T00:21:36;12.77;;;8.30;;
809;SDS011;387;48.772;9.186;2023-06-22T00:24:03;13.00;;;8.40;;
809;SDS011;387;48.772;9.186;2023-06-22T00:26:29;13.30;;;8.63;;
809;SDS011;387;48.772;9.186;2023-06-22T00:28:54;18.03;;;8.80;;
809;SDS011;387;48.772;9.186;2023-06-22T00:31:20;13.10;;;8.67;;
809;SDS011;387;48.772;9.186;2023-06-22T00:33:46;14.17;;;9.27;;
809;SDS011;387;48.772;9.186;2023-06-22T00:36:11;11.63;;;8.13;;
809;SDS011;387;48.772;9.186;2023-06-22T00:38:41;14.17;;;8.37;;
809;SDS011;387;48.772;9.186;2023-06-22T00:41:06;13.20;;;8.90;;
809;SDS011;387;48.772;9.186;2023-06-22T00:43:32;19.40;;;8.53;;
809;SDS011;387;48.772;9.186;2023-06-22T00:45:58;14.77;;;8.60;;
809;SDS011;387;48.772;9.186;2023-06-22T00:48:23;13.40;;;8.30;;
809;SDS011;387;48.772;9.186;2023-06-22T00:50:49;14.80;;;9.50;;
809;SDS011;387;48.772;9.186;2023-06-22T00:53:16;17.40;;;9.23;;
809;SDS011;387;48.772;9.186;2023-06-22T00:55:43;15.83;;;9.43;;
809;SDS011;387;48.772;9.186;2023-06-22T00:58:11;14.53;;;8.97;;
809;SDS011;387;48.772;9.186;2023-06-22T01:00:38;14.10;;;9.50;;
809;SDS011;387;48.772;9.186;2023-06-22T01:03:05;14.27;;;9.00;;
809;SDS011;387;48.772;9.186;2023-06-22T01:05:34;16.20;;;9.23;;
809;SDS011;387;48.772;9.186;2023-06-22T01:08:04;15.70;;;8.90;;
809;SDS011;387;48.772;9.186;2023-06-22T01:10:39;20.60;;;10.70;;
809;SDS011;387;48.772;9.186;2023-06-22T01:16:13;15.83;;;10.13;;
809;SDS011;387;48.772;9.186;2023-06-22T01:18:50;16.17;;;9.67;;
809;SDS011;387;48.772;9.186;2023-06-22T01:21:18;18.23;;;9.87;;
809;SDS011;387;48.772;9.186;2023-06-22T01:26:42;17.07;;;10.10;;
809;SDS011;387;48.772;9.186;2023-06-22T01:29:10;16.47;;;10.23;;
809;SDS011;387;48.772;9.186;2023-06-22T01:31:38;14.13;;;9.40;;
809;SDS011;387;48.772;9.186;2023-06-22T01:34:06;14.50;;;9.73;;
809;SDS011;387;48.772;9.186;2023-06-22T01:36:33;14.10;;;8.00;;
809;SDS011;387;48.772;9.186;2023-06-22T01:39:00;15.37;;;9.30;;
809;SDS011;387;48.772;9.186;2023-06-22T01:41:29;16.83;;;9.23;;
809;SDS011;387;48.772;9.186;2023-06-22T01:43:56;18.73;;;8.83;;
809;SDS011;387;48.772;9.186;2023-06-22T01:46:22;13.70;;;8.30;;
809;SDS011;387;48.772;9.186;2023-06-22T01:48:48;16.53;;;9.10;;
809;SDS011;387;48.772;9.186;2023-06-22T01:51:15;12.80;;;8.60;;
809;SDS011;387;48.772;9.186;2023-06-22T01:53:41;14.37;;;9.07;;
809;SDS011;387;48.772;9.186;2023-06-22T01:56:07;14.80;;;8.97;;
809;SDS011;387;48.772;9.186;2023-06-22T01:58:33;15.80;;;8.97;;
809;SDS011;387;48.772;9.186;2023-06-22T02:03:35;16.90;;;9.40;;
809;SDS011;387;48.772;9.186;2023-06-22T02:06:06;16.73;;;8.83;;
809;SDS011;387;48.772;9.186;2023-06-22T02:08:38;16.20;;;8.70;;
809;SDS011;387;48.772;9.186;2023-06-22T02:11:07;10.77;;;7.53;;
809;SDS011;387;48.772;9.186;2023-06-22T02:13:36;15.37;;;9.40;;
809;SDS011;387;48.772;9.186;2023-06-22T02:16:02;14.53;;;8.80;;
809;SDS011;387;48.772;9.186;2023-06-22T02:18:28;13.83;;;8.87;;
809;SDS011;387;48.772;9.186;2023-06-22T02:20:54;17.30;;;8.70;;
809;SDS011;387;48.772;9.186;2023-06-22T02:23:19;16.13;;;9.30;;
809;SDS011;387;48.772;9.186;2023-06-22T02:25:45;15.03;;;8.47;;
809;SDS011;387;48.772;9.186;2023-06-22T02:28:11;15.60;;;9.37;;
809;SDS011;387;48.772;9.186;2023-06-22T02:30:36;15.03;;;8.70;;
809;SDS011;387;48.772;9.186;2023-06-22T02:33:02;14.63;;;8.97;;
809;SDS011;387;48.772;9.186;2023-06-22T02:35:28;12.97;;;8.80;;
809;SDS011;387;48.772;9.186;2023-06-22T02:38:00;14.00;;;9.13;;
809;SDS011;387;48.772;9.186;2023-06-22T02:40:27;17.40;;;9.80;;
809;SDS011;387;48.772;9.186;2023-06-22T02:42:54;12.97;;;9.03;;
809;SDS011;387;48.772;9.186;2023-06-22T02:45:20;16.43;;;10.00;;
809;SDS011;387;48.772;9.186;2023-06-22T02:47:45;19.40;;;10.13;;
809;SDS011;387;48.772;9.186;2023-06-22T02:50:12;12.17;;;8.47;;
809;SDS011;387;48.772;9.186;2023-06-22T02:52:38;15.20;;;9.07;;
809;SDS011;387;48.772;9.186;2023-06-22T02:55:04;16.30;;;9.93;;
809;SDS011;387;48.772;9.186;2023-06-22T02:57:32;17.23;;;9.67;;
809;SDS011;387;48.772;9.186;2023-06-22T02:59:57;15.97;;;9.87;;
809;SDS011;387;48.772;9.186;2023-06-22T03:02:23;18.83;;;9.93;;
809;SDS011;387;48.772;9.186;2023-06-22T03:04:51;12.87;;;9.00;;
809;SDS011;387;48.772;9.186;2023-06-22T03:07:19;18.33;;;10.13;;
809;SDS011;387;48.772;9.186;2023-06-22T03:09:45;14.13;;;9.20;;
809;SDS011;387;48.772;9.186;2023-06-22T03:12:11;16.80;;;10.33;;
809;SDS011;387;48.772;9.186;2023-06-22T03:14:36;16.03;;;9.93;;
809;SDS011;387;48.772;9.186;2023-06-22T03:17:03;16.20;;;9.90;;
809;SDS011;387;48.772;9.186;2023-06-22T03:19:30;16.07;;;10.73;;
809;SDS011;387;48.772;9.186;2023-06-22T03:21:57;15.83;;;10.30;;
809;SDS011;387;48.772;9.186;2023-06-22T03:24:24;20.87;;;11.30;;
809;SDS011;387;48.772;9.186;2023-06-22T03:26:50;16.20;;;9.53;;
809;SDS011;387;48.772;9.186;2023-06-22T03:29:15;17.23;;;10.77;;
809;SDS011;387;48.772;9.186;2023-06-22T03:31:41;19.17;;;9.67;;
809;SDS011;387;48.772;9.186;2023-06-22T03:34:07;18.37;;;10.80;;
809;SDS011;387;48.772;9.186;2023-06-22T03:36:32;19.90;;;10.77;;
809;SDS011;387;48.772;9.186;2023-06-22T03:38:58;17.57;;;10.30;;
809;SDS011;387;48.772;9.186;2023-06-22T03:41:23;17.73;;;11.47;;
809;SDS011;387;48.772;9.186;2023-06-22T03:43:50;20.23;;;10.57;;
809;SDS011;387;48.772;9.186;2023-06-22T03:46:16;16.93;;;9.80;;
809;SDS011;387;48.772;9.186;2023-06-22T03:48:41;17.40;;;9.40;;
809;SDS011;387;48.772;9.186;2023-06-22T03:51:07;15.30;;;9.83;;
809;SDS011;387;48.772;9.186;2023-06-22T03:53:33;15.60;;;9.37;;
809;SDS011;387;48.772;9.186;2023-06-22T03:55:58;19.50;;;10.70;;
809;SDS011;387;48.772;9.186;2023-06-22T03:58:24;13.80;;;9.60;;
809;SDS011;387;48.772;9.186;2023-06-22T04:00:50;15.90;;;9.30;;
809;SDS011;387;48.772;9.186;2023-06-22T04:03:17;15.33;;;9.70;;
809;SDS011;387;48.772;9.186;2023-06-22T04:05:47;17.40;;;10.00;;
809;SDS011;387;48.772;9.186;2023-06-22T04:08:13;17.50;;;10.73;;
809;SDS011;387;48.772;9.186;2023-06-22T04:10:39;17.33;;;10.40;;
809;SDS011;387;48.772;9.186;2023-06-22T04:13:05;22.03;;;10.33;;
809;SDS011;387;48.772;9.186;2023-06-22T04:15:31;16.60;;;10.10;;
809;SDS011;387;48.772;9.186;2023-06-22T04:17:56;16.47;;;10.03;;
809;SDS011;387;48.772;9.186;2023-06-22T04:20:22;18.70;;;10.20;;
809;SDS011;387;48.772;9.186;2023-06-22T04:22:50;17.97;;;10.80;;
809;SDS011;387;48.772;9.186;2023-06-22T04:25:17;17.20;;;9.77;;
809;SDS011;387;48.772;9.186;2023-06-22T04:27:43;14.00;;;9.60;;
809;SDS011;387;48.772;9.186;2023-06-22T04:30:10;18.97;;;9.90;;
809;SDS011;387;48.772;9.186;2023-06-22T04:32:36;18.67;;;10.47;;
809;SDS011;387;48.772;9.186;2023-06-22T04:35:02;18.23;;;11.83;;
809;SDS011;387;48.772;9.186;2023-06-22T04:37:29;15.43;;;10.40;;
809;SDS011;387;48.772;9.186;2023-06-22T04:39:55;16.13;;;10.27;;
809;SDS011;387;48.772;9.186;2023-06-22T04:42:21;21.97;;;10.70;;
809;SDS011;387;48.772;9.186;2023-06-22T04:44:46;14.43;;;8.97;;
809;SDS011;387;48.772;9.186;2023-06-22T04:47:12;18.03;;;10.50;;
809;SDS011;387;48.772;9.186;2023-06-22T04:49:38;21.63;;;11.57;;
809;SDS011;387;48.772;9.186;2023-06-22T04:52:05;22.50;;;12.90;;
809;SDS011;387;48.772;9.186;2023-06-22T04:54:33;19.33;;;11.43;;
809;SDS011;387;48.772;9.186;2023-06-22T04:57:00;20.50;;;11.90;;
809;SDS011;387;48.772;9.186;2023-06-22T04:59:29;18.30;;;11.00;;
809;SDS011;387;48.772;9.186;2023-06-22T05:01:56;18.03;;;11.23;;
809;SDS011;387;48.772;9.186;2023-06-22T05:04:23;18.53;;;10.33;;
809;SDS011;387;48.772;9.186;2023-06-22T05:06:50;17.10;;;10.00;;
809;SDS011;387;48.772;9.186;2023-06-22T05:09:16;24.63;;;12.20;;
809;SDS011;387;48.772;9.186;2023-06-22T05:11:42;22.93;;;11.10;;
809;SDS011;387;48.772;9.186;2023-06-22T05:14:08;20.30;;;13.10;;
809;SDS011;387;48.772;9.186;2023-06-22T05:16:34;16.00;;;10.93;;
809;SDS011;387;48.772;9.186;2023-06-22T05:19:01;19.30;;;12.20;;
809;SDS011;387;48.772;9.186;2023-06-22T05:21:28;19.53;;;11.00;;
809;SDS011;387;48.772;9.186;2023-06-22T05:23:54;21.67;;;11.97;;
809;SDS011;387;48.772;9.186;2023-06-22T05:26:21;17.87;;;11.23;;
809;SDS011;387;48.772;9.186;2023-06-22T05:28:47;23.20;;;13.57;;
809;SDS011;387;48.772;9.186;2023-06-22T05:31:16;15.97;;;10.40;;
809;SDS011;387;48.772;9.186;2023-06-22T05:33:43;24.73;;;12.53;;
809;SDS011;387;48.772;9.186;2023-06-22T05:36:09;19.47;;;10.90;;
809;SDS011;387;48.772;9.186;2023-06-22T05:38:35;20.53;;;11.00;;
809;SDS011;387;48.772;9.186;2023-06-22T05:41:01;27.30;;;12.20;;
809;SDS011;387;48.772;9.186;2023-06-22T05:43:27;21.50;;;11.23;;
809;SDS011;387;48.772;9.186;2023-06-22T05:45:53;23.67;;;12.70;;
809;SDS011;387;48.772;9.186;2023-06-22T05:48:22;27.40;;;11.50;;
809;SDS011;387;48.772;9.186;2023-06-22T05:50:47;15.03;;;9.03;;
809;SDS011;387;48.772;9.186;2023-06-22T05:53:13;18.27;;;10.40;;
809;SDS011;387;48.772;9.186;2023-06-22T05:55:39;16.30;;;9.97;;
809;SDS011;387;48.772;9.186;2023-06-22T05:58:04;16.00;;;10.70;;
809;SDS011;387;48.772;9.186;2023-06-22T06:00:30;17.30;;;10.27;;
809;SDS011;387;48.772;9.186;2023-06-22T06:02:56;14.10;;;9.90;;
809;SDS011;387;48.772;9.186;2023-06-22T06:05:22;17.40;;;8.77;;
809;SDS011;387;48.772;9.186;2023-06-22T06:07:48;17.27;;;10.07;;
809;SDS011;387;48.772;9.186;2023-06-22T06:10:14;21.23;;;10.37;;
809;SDS011;387;48.772;9.186;2023-06-22T06:12:40;17.20;;;10.77;;
809;SDS011;387;48.772;9.186;2023-06-22T06:15:05;16.90;;;10.47;;
809;SDS011;387;48.772;9.186;2023-06-22T06:17:31;14.13;;;9.23;;
809;SDS011;387;48.772;9.186;2023-06-22T06:19:58;15.27;;;9.07;;
809;SDS011;387;48.772;9.186;2023-06-22T06:22:24;18.57;;;9.00;;
809;SDS011;387;48.772;9.186;2023-06-22T06:24:50;18.63;;;9.10;;
809;SDS011;387;48.772;9.186;2023-06-22T06:27:16;14.87;;;8.60;;
809;SDS011;387;48.772;9.186;2023-06-22T06:29:44;18.07;;;9.10;;
809;SDS011;387;48.772;9.186;2023-06-22T06:32:13;14.20;;;8.30;;
809;SDS011;387;48.772;9.186;2023-06-22T06:34:39;13.50;;;8.47;;
809;SDS011;387;48.772;9.186;2023-06-22T06:37:05;16.60;;;9.80;;
809;SDS011;387;48.772;9.186;2023-06-22T06:39:31;15.43;;;9.70;;
809;SDS011;387;48.772;9.186;2023-06-22T06:41:56;14.70;;;9.13;;
809;SDS011;387;48.772;9.186;2023-06-22T06:44:22;17.40;;;8.30;;
809;SDS011;387;48.772;9.186;2023-06-22T06:46:48;15.00;;;8.40;;
809;SDS011;387;48.772;9.186;2023-06-22T06:49:14;13.53;;;7.67;;
809;SDS011;387;48.772;9.186;2023-06-22T06:51:39;16.77;;;8.77;;
809;SDS011;387;48.772;9.186;2023-06-22T06:54:05;14.37;;;8.70;;
809;SDS011;387;48.772;9.186;2023-06-22T06:56:30;14.20;;;8.50;;
809;SDS011;387;48.772;9.186;2023-06-22T07:01:33;15.40;;;8.03;;
809;SDS011;387;48.772;9.186;2023-06-22T07:04:00;13.57;;;7.67;;
809;SDS011;387;48.772;9.186;2023-06-22T07:06:26;14.03;;;7.83;;
809;SDS011;387;48.772;9.186;2023-06-22T07:08:55;16.70;;;8.10;;
809;SDS011;387;48.772;9.186;2023-06-22T07:11:20;12.10;;;7.97;;
809;SDS011;387;48.772;9.186;2023-06-22T07:13:46;12.47;;;8.80;;
809;SDS011;387;48.772;9.186;2023-06-22T07:16:11;16.30;;;8.57;;
809;SDS011;387;48.772;9.186;2023-06-22T07:18:39;16.00;;;8.03;;
809;SDS011;387;48.772;9.186;2023-06-22T07:21:05;13.70;;;8.33;;
809;SDS011;387;48.772;9.186;2023-06-22T07:23:32;16.23;;;7.77;;
809;SDS011;387;48.772;9.186;2023-06-22T07:25:57;17.37;;;8.53;;
809;SDS011;387;48.772;9.186;2023-06-22T07:28:26;15.20;;;8.70;;
809;SDS011;387;48.772;9.186;2023-06-22T07:30:52;12.83;;;8.50;;
809;SDS011;387;48.772;9.186;2023-06-22T07:33:18;15.70;;;7.60;;
809;SDS011;387;48.772;9.186;2023-06-22T07:35:44;12.47;;;8.30;;
809;SDS011;387;48.772;9.186;2023-06-22T07:38:10;15.50;;;8.27;;
809;SDS011;387;48.772;9.186;2023-06-22T07:40:36;14.83;;;7.43;;
809;SDS011;387;48.772;9.186;2023-06-22T07:43:02;13.20;;;8.00;;
809;SDS011;387;48.772;9.186;2023-06-22T07:45:28;14.93;;;6.80;;
809;SDS011;387;48.772;9.186;2023-06-22T07:47:54;14.43;;;8.20;;
809;SDS011;387;48.772;9.186;2023-06-22T07:50:20;12.53;;;7.43;;
809;SDS011;387;48.772;9.186;2023-06-22T07:52:45;12.83;;;6.53;;
809;SDS011;387;48.772;9.186;2023-06-22T07:55:12;10.27;;;6.83;;
809;SDS011;387;48.772;9.186;2023-06-22T07:57:38;11.63;;;7.73;;
809;SDS011;387;48.772;9.186;2023-06-22T08:00:04;13.63;;;7.13;;
809;SDS011;387;48.772;9.186;2023-06-22T08:02:40;14.33;;;7.20;;
809;SDS011;387;48.772;9.186;2023-06-22T08:05:07;14.80;;;6.90;;
809;SDS011;387;48.772;9.186;2023-06-22T08:07:34;15.07;;;7.43;;
809;SDS011;387;48.772;9.186;2023-06-22T08:10:02;14.10;;;7.50;;
809;SDS011;387;48.772;9.186;2023-06-22T08:12:28;13.57;;;7.23;;
809;SDS011;387;48.772;9.186;2023-06-22T08:14:54;14.63;;;7.73;;
809;SDS011;387;48.772;9.186;2023-06-22T08:17:21;12.73;;;7.40;;
809;SDS011;387;48.772;9.186;2023-06-22T08:19:48;13.20;;;7.60;;
809;SDS011;387;48.772;9.186;2023-06-22T08:22:13;13.90;;;7.67;;
809;SDS011;387;48.772;9.186;2023-06-22T08:24:40;13.57;;;7.40;;
809;SDS011;387;48.772;9.186;2023-06-22T08:27:07;13.10;;;6.37;;
809;SDS011;387;48.772;9.186;2023-06-22T08:29:40;11.37;;;6.90;;
809;SDS011;387;48.772;9.186;2023-06-22T08:32:10;12.00;;;7.30;;
809;SDS011;387;48.772;9.186;2023-06-22T08:34:36;13.03;;;7.47;;
809;SDS011;387;48.772;9.186;2023-06-22T08:37:02;15.20;;;7.90;;
809;SDS011;387;48.772;9.186;2023-06-22T08:39:31;10.53;;;6.60;;
809;SDS011;387;48.772;9.186;2023-06-22T08:41:57;15.67;;;7.87;;
809;SDS011;387;48.772;9.186;2023-06-22T08:44:22;16.63;;;6.80;;
809;SDS011;387;48.772;9.186;2023-06-22T08:46:48;12.33;;;6.40;;
809;SDS011;387;48.772;9.186;2023-06-22T08:49:14;9.23;;;5.73;;
809;SDS011;387;48.772;9.186;2023-06-22T08:51:40;7.83;;;5.30;;
809;SDS011;387;48.772;9.186;2023-06-22T08:54:05;13.70;;;6.77;;
809;SDS011;387;48.772;9.186;2023-06-22T08:56:31;12.90;;;6.87;;
809;SDS011;387;48.772;9.186;2023-06-22T08:58:56;12.50;;;7.10;;
809;SDS011;387;48.772;9.186;2023-06-22T09:01:22;12.27;;;6.77;;
809;SDS011;387;48.772;9.186;2023-06-22T09:03:48;10.30;;;6.30;;
809;SDS011;387;48.772;9.186;2023-06-22T09:06:19;12.83;;;7.00;;
809;SDS011;387;48.772;9.186;2023-06-22T09:08:46;14.10;;;6.77;;
809;SDS011;387;48.772;9.186;2023-06-22T09:11:12;12.57;;;7.37;;
809;SDS011;387;48.772;9.186;2023-06-22T09:13:38;12.13;;;6.70;;
809;SDS011;387;48.772;9.186;2023-06-22T09:16:04;13.20;;;6.40;;
809;SDS011;387;48.772;9.186;2023-06-22T09:18:29;12.27;;;6.57;;
809;SDS011;387;48.772;9.186;2023-06-22T09:20:55;12.70;;;6.90;;
809;SDS011;387;48.772;9.186;2023-06-22T09:23:21;12.80;;;6.90;;
809;SDS011;387;48.772;9.186;2023-06-22T09:25:47;14.67;;;6.80;;
809;SDS011;387;48.772;9.186;2023-06-22T09:28:13;16.13;;;7.20;;
809;SDS011;387;48.772;9.186;2023-06-22T09:30:39;17.43;;;7.67;;
809;SDS011;387;48.772;9.186;2023-06-22T09:33:05;13.40;;;6.67;;
809;SDS011;387;48.772;9.186;2023-06-22T09:35:30;13.40;;;6.90;;
809;SDS011;387;48.772;9.186;2023-06-22T09:37:56;14.07;;;7.03;;
809;SDS011;387;48.772;9.186;2023-06-22T09:40:21;19.43;;;6.53;;
809;SDS011;387;48.772;9.186;2023-06-22T09:42:47;11.13;;;6.37;;
809;SDS011;387;48.772;9.186;2023-06-22T09:45:12;12.80;;;6.83;;
809;SDS011;387;48.772;9.186;2023-06-22T09:47:38;14.47;;;7.90;;
809;SDS011;387;48.772;9.186;2023-06-22T09:50:04;18.87;;;7.40;;
809;SDS011;387;48.772;9.186;2023-06-22T09:52:30;10.77;;;6.90;;
809;SDS011;387;48.772;9.186;2023-06-22T09:54:56;12.67;;;7.20;;
809;SDS011;387;48.772;9.186;2023-06-22T09:57:21;11.70;;;6.50;;
809;SDS011;387;48.772;9.186;2023-06-22T09:59:47;12.57;;;6.87;;
809;SDS011;387;48.772;9.186;2023-06-22T10:02:13;15.47;;;7.57;;
809;SDS011;387;48.772;9.186;2023-06-22T10:04:38;9.40;;;6.43;;
809;SDS011;387;48.772;9.186;2023-06-22T10:07:07;15.00;;;6.80;;
809;SDS011;387;48.772;9.186;2023-06-22T10:09:32;18.77;;;7.53;;
809;SDS011;387;48.772;9.186;2023-06-22T10:11:58;16.70;;;7.80;;
809;SDS011;387;48.772;9.186;2023-06-22T10:14:24;15.70;;;7.10;;
809;SDS011;387;48.772;9.186;2023-06-22T10:16:51;14.40;;;7.03;;
809;SDS011;387;48.772;9.186;2023-06-22T10:19:17;11.70;;;7.40;;
809;SDS011;387;48.772;9.186;2023-06-22T10:21:46;13.40;;;7.00;;
809;SDS011;387;48.772;9.186;2023-06-22T10:24:11;19.43;;;7.90;;
809;SDS011;387;48.772;9.186;2023-06-22T10:26:37;15.80;;;7.23;;
809;SDS011;387;48.772;9.186;2023-06-22T10:29:03;14.80;;;7.30;;
809;SDS011;387;48.772;9.186;2023-06-22T10:31:28;13.20;;;8.07;;
809;SDS011;387;48.772;9.186;2023-06-22T10:33:54;15.07;;;6.33;;
809;SDS011;387;48.772;9.186;2023-06-22T10:36:23;13.27;;;7.70;;
809;SDS011;387;48.772;9.186;2023-06-22T10:38:51;14.50;;;6.77;;
809;SDS011;387;48.772;9.186;2023-06-22T10:41:18;16.77;;;8.57;;
809;SDS011;387;48.772;9.186;2023-06-22T10:43:43;16.73;;;7.40;;
809;SDS011;387;48.772;9.186;2023-06-22T10:46:09;14.87;;;7.90;;
809;SDS011;387;48.772;9.186;2023-06-22T10:48:35;15.50;;;6.90;;
809;SDS011;387;48.772;9.186;2023-06-22T10:51:00;15.80;;;7.40;;
809;SDS011;387;48.772;9.186;2023-06-22T10:53:26;14.57;;;7.00;;
809;SDS011;387;48.772;9.186;2023-06-22T10:55:51;16.00;;;7.30;;
809;SDS011;387;48.772;9.186;2023-06-22T10:58:18;18.70;;;7.60;;
809;SDS011;387;48.772;9.186;2023-06-22T11:00:44;16.87;;;7.40;;
809;SDS011;387;48.772;9.186;2023-06-22T11:03:10;19.50;;;8.03;;
809;SDS011;387;48.772;9.186;2023-06-22T11:05:36;12.53;;;8.83;;
809;SDS011;387;48.772;9.186;2023-06-22T11:08:01;14.47;;;6.77;;
809;SDS011;387;48.772;9.186;2023-06-22T11:10:27;18.80;;;7.30;;
809;SDS011;387;48.772;9.186;2023-06-22T11:12:52;13.83;;;7.67;;
809;SDS011;387;48.772;9.186;2023-06-22T11:15:18;13.57;;;6.97;;
809;SDS011;387;48.772;9.186;2023-06-22T11:17:44;18.93;;;7.27;;
809;SDS011;387;48.772;9.186;2023-06-22T11:20:09;11.23;;;7.23;;
809;SDS011;387;48.772;9.186;2023-06-22T11:22:36;14.10;;;7.03;;
809;SDS011;387;48.772;9.186;2023-06-22T11:25:05;14.80;;;7.80;;
809;SDS011;387;48.772;9.186;2023-06-22T11:27:31;17.67;;;9.00;;
809;SDS011;387;48.772;9.186;2023-06-22T11:29:57;13.13;;;7.20;;
809;SDS011;387;48.772;9.186;2023-06-22T11:32:22;17.30;;;8.80;;
809;SDS011;387;48.772;9.186;2023-06-22T11:34:48;14.77;;;8.30;;
809;SDS011;387;48.772;9.186;2023-06-22T11:37:14;17.53;;;8.27;;
809;SDS011;387;48.772;9.186;2023-06-22T11:39:40;16.43;;;8.13;;
809;SDS011;387;48.772;9.186;2023-06-22T11:42:06;22.30;;;8.50;;
809;SDS011;387;48.772;9.186;2023-06-22T11:44:32;16.63;;;8.73;;
809;SDS011;387;48.772;9.186;2023-06-22T11:46:57;14.13;;;7.70;;
809;SDS011;387;48.772;9.186;2023-06-22T11:49:23;14.27;;;8.37;;
809;SDS011;387;48.772;9.186;2023-06-22T11:51:49;12.13;;;7.60;;
809;SDS011;387;48.772;9.186;2023-06-22T11:54:14;16.93;;;7.97;;
809;SDS011;387;48.772;9.186;2023-06-22T11:56:40;13.17;;;8.13;;
809;SDS011;387;48.772;9.186;2023-06-22T11:59:05;16.10;;;7.93;;
809;SDS011;387;48.772;9.186;2023-06-22T12:01:31;14.63;;;7.60;;
809;SDS011;387;48.772;9.186;2023-06-22T12:03:58;15.60;;;7.70;;
809;SDS011;387;48.772;9.186;2023-06-22T12:06:23;15.53;;;7.73;;
809;SDS011;387;48.772;9.186;2023-06-22T12:08:49;12.97;;;6.77;;
809;SDS011;387;48.772;9.186;2023-06-22T12:11:14;13.20;;;7.30;;
809;SDS011;387;48.772;9.186;2023-06-22T12:13:40;17.50;;;7.60;;
809;SDS011;387;48.772;9.186;2023-06-22T12:16:05;16.60;;;8.30;;
809;SDS011;387;48.772;9.186;2023-06-22T12:18:32;23.30;;;9.37;;
809;SDS011;387;48.772;9.186;2023-06-22T12:20:57;17.77;;;7.13;;
809;SDS011;387;48.772;9.186;2023-06-22T12:23:23;10.67;;;7.03;;
809;SDS011;387;48.772;9.186;2023-06-22T12:25:48;18.23;;;8.43;;
809;SDS011;387;48.772;9.186;2023-06-22T12:28:14;15.47;;;7.50;;
809;SDS011;387;48.772;9.186;2023-06-22T12:30:40;17.90;;;8.60;;
809;SDS011;387;48.772;9.186;2023-06-22T12:33:05;19.07;;;8.73;;
809;SDS011;387;48.772;9.186;2023-06-22T12:35:31;26.73;;;8.03;;
809;SDS011;387;48.772;9.186;2023-06-22T12:37:56;13.00;;;7.33;;
809;SDS011;387;48.772;9.186;2023-06-22T12:40:23;15.43;;;7.10;;
809;SDS011;387;48.772;9.186;2023-06-22T12:42:49;17.53;;;7.80;;
809;SDS011;387;48.772;9.186;2023-06-22T12:45:15;13.77;;;7.53;;
809;SDS011;387;48.772;9.186;2023-06-22T12:47:40;16.80;;;8.47;;
809;SDS011;387;48.772;9.186;2023-06-22T12:50:06;17.63;;;8.40;;
809;SDS011;387;48.772;9.186;2023-06-22T12:52:32;12.93;;;7.80;;
809;SDS011;387;48.772;9.186;2023-06-22T12:54:58;13.47;;;7.00;;
809;SDS011;387;48.772;9.186;2023-06-22T12:57:23;19.93;;;7.87;;
809;SDS011;387;48.772;9.186;2023-06-22T12:59:50;14.53;;;7.67;;
809;SDS011;387;48.772;9.186;2023-06-22T13:02:15;17.37;;;8.33;;
809;SDS011;387;48.772;9.186;2023-06-22T13:04:41;15.73;;;7.70;;
809;SDS011;387;48.772;9.186;2023-06-22T13:07:08;16.60;;;9.00;;
809;SDS011;387;48.772;9.186;2023-06-22T13:09:33;13.53;;;8.50;;
809;SDS011;387;48.772;9.186;2023-06-22T13:12:01;25.57;;;8.40;;
809;SDS011;387;48.772;9.186;2023-06-22T13:14:27;15.30;;;7.90;;
809;SDS011;387;48.772;9.186;2023-06-22T13:16:53;12.17;;;7.40;;
809;SDS011;387;48.772;9.186;2023-06-22T13:19:18;17.40;;;8.40;;
809;SDS011;387;48.772;9.186;2023-06-22T13:21:44;15.83;;;7.83;;
809;SDS011;387;48.772;9.186;2023-06-22T13:24:09;15.40;;;7.37;;
809;SDS011;387;48.772;9.186;2023-06-22T13:26:35;15.73;;;7.77;;
809;SDS011;387;48.772;9.186;2023-06-22T13:29:00;18.43;;;8.63;;
809;SDS011;387;48.772;9.186;2023-06-22T13:31:26;17.73;;;8.23;;
809;SDS011;387;48.772;9.186;2023-06-22T13:33:52;16.43;;;7.40;;
809;SDS011;387;48.772;9.186;2023-06-22T13:36:18;14.13;;;7.57;;
809;SDS011;387;48.772;9.186;2023-06-22T13:38:44;14.40;;;7.47;;
809;SDS011;387;48.772;9.186;2023-06-22T13:41:10;11.87;;;7.63;;
809;SDS011;387;48.772;9.186;2023-06-22T13:43:35;15.60;;;7.17;;
809;SDS011;387;48.772;9.186;2023-06-22T13:46:01;22.40;;;9.13;;
809;SDS011;387;48.772;9.186;2023-06-22T13:48:28;13.40;;;7.23;;
809;SDS011;387;48.772;9.186;2023-06-22T13:50:53;17.50;;;8.80;;
809;SDS011;387;48.772;9.186;2023-06-22T13:53:19;15.67;;;7.67;;
809;SDS011;387;48.772;9.186;2023-06-22T13:55:45;16.57;;;7.47;;
809;SDS011;387;48.772;9.186;2023-06-22T13:58:11;17.97;;;7.17;;
809;SDS011;387;48.772;9.186;2023-06-22T14:00:37;22.30;;;7.97;;
809;SDS011;387;48.772;9.186;2023-06-22T14:03:02;15.13;;;7.13;;
809;SDS011;387;48.772;9.186;2023-06-22T14:05:28;13.40;;;7.27;;
809;SDS011;387;48.772;9.186;2023-06-22T14:07:54;17.20;;;8.13;;
809;SDS011;387;48.772;9.186;2023-06-22T14:10:19;15.23;;;7.60;;
809;SDS011;387;48.772;9.186;2023-06-22T14:12:45;15.23;;;7.07;;
809;SDS011;387;48.772;9.186;2023-06-22T14:15:11;16.67;;;8.23;;
809;SDS011;387;48.772;9.186;2023-06-22T14:17:36;14.77;;;7.23;;
809;SDS011;387;48.772;9.186;2023-06-22T14:20:02;18.40;;;8.03;;
809;SDS011;387;48.772;9.186;2023-06-22T14:22:28;12.80;;;6.90;;
809;SDS011;387;48.772;9.186;2023-06-22T14:24:54;12.77;;;7.07;;
809;SDS011;387;48.772;9.186;2023-06-22T14:27:22;15.80;;;7.23;;
809;SDS011;387;48.772;9.186;2023-06-22T14:29:48;15.43;;;7.43;;
809;SDS011;387;48.772;9.186;2023-06-22T14:32:13;18.17;;;7.30;;
809;SDS011;387;48.772;9.186;2023-06-22T14:34:39;14.83;;;6.57;;
809;SDS011;387;48.772;9.186;2023-06-22T14:37:06;13.17;;;5.90;;
809;SDS011;387;48.772;9.186;2023-06-22T14:39:32;11.23;;;5.03;;
809;SDS011;387;48.772;9.186;2023-06-22T14:41:58;13.53;;;6.57;;
809;SDS011;387;48.772;9.186;2023-06-22T14:44:25;12.40;;;6.20;;
809;SDS011;387;48.772;9.186;2023-06-22T14:46:51;15.63;;;6.10;;
809;SDS011;387;48.772;9.186;2023-06-22T14:49:17;13.20;;;5.60;;
809;SDS011;387;48.772;9.186;2023-06-22T14:51:42;12.73;;;6.90;;
809;SDS011;387;48.772;9.186;2023-06-22T14:54:08;20.73;;;4.60;;
809;SDS011;387;48.772;9.186;2023-06-22T14:56:33;12.97;;;4.30;;
809;SDS011;387;48.772;9.186;2023-06-22T14:58:59;9.60;;;4.07;;
809;SDS011;387;48.772;9.186;2023-06-22T15:01:25;12.63;;;4.50;;
809;SDS011;387;48.772;9.186;2023-06-22T15:03:50;13.43;;;4.20;;
809;SDS011;387;48.772;9.186;2023-06-22T15:06:16;13.63;;;4.53;;
809;SDS011;387;48.772;9.186;2023-06-22T15:08:42;10.30;;;4.40;;
809;SDS011;387;48.772;9.186;2023-06-22T15:11:07;12.93;;;4.87;;
809;SDS011;387;48.772;9.186;2023-06-22T15:13:33;9.10;;;4.60;;
809;SDS011;387;48.772;9.186;2023-06-22T15:16:00;13.20;;;4.33;;
809;SDS011;387;48.772;9.186;2023-06-22T15:18:26;13.20;;;4.73;;
809;SDS011;387;48.772;9.186;2023-06-22T15:20:52;14.63;;;5.20;;
809;SDS011;387;48.772;9.186;2023-06-22T15:23:18;13.23;;;4.50;;
809;SDS011;387;48.772;9.186;2023-06-22T15:25:43;14.27;;;4.40;;
809;SDS011;387;48.772;9.186;2023-06-22T15:28:10;12.77;;;4.43;;
809;SDS011;387;48.772;9.186;2023-06-22T15:30:36;12.13;;;4.43;;
809;SDS011;387;48.772;9.186;2023-06-22T15:33:02;12.80;;;4.43;;